St. Margarethen - Festspielgelnde
Wetterdaten: aktuell Freitag, 07.05.2021 08:52
Datum Zeit Temp. A. Feuchte A. Regen Wind Richtung Richtung Taupunkt Windchill Windben
07.05.2021 08:52 10,1 C 86 % 0,0 l/m 1,5 km/h (1 Bft) W 266 7,9 C 10,1 C 3,2 km/h (1 Bft)
07.05.2021 07:52 8,6 C 89 % 0,0 l/m 10,5 km/h (2 Bft) O-NO 64 6,9 C 5,7 C 11,3 km/h (2 Bft)
07.05.2021 06:52 8,3 C 87 % 0,0 l/m 7,0 km/h (2 Bft) NO 54 6,3 C 7,8 C 8,0 km/h (2 Bft)
07.05.2021 05:52 8,7 C 85 % 0,0 l/m 4,9 km/h (1 Bft) N-NO 28 6,3 C 8,7 C 6,4 km/h (2 Bft)
07.05.2021 04:52 8,3 C 86 % 0,0 l/m 4,5 km/h (1 Bft) W 278 6,1 C 8,3 C 6,4 km/h (2 Bft)
07.05.2021 03:52 8,2 C 86 % 0,0 l/m 1,6 km/h (1 Bft) W 277 6,0 C 8,2 C 1,6 km/h (1 Bft)
07.05.2021 02:52 8,8 C 82 % 0,0 l/m 0,5 km/h (0 Bft) SW 236 5,9 C 8,8 C 1,6 km/h (1 Bft)
07.05.2021 01:52 9,3 C 79 % 0,0 l/m 5,5 km/h (1 Bft) W-SW 253 5,8 C 9,3 C 8,0 km/h (2 Bft)
07.05.2021 00:52 9,2 C 80 % 0,0 l/m 7,8 km/h (2 Bft) S-SO 162 5,9 C 8,2 C 12,9 km/h (3 Bft)
06.05.2021 23:52 9,6 C 80 % 0,0 l/m 9,5 km/h (2 Bft) S 190 6,3 C 7,5 C 17,7 km/h (3 Bft)
06.05.2021 22:52 9,5 C 79 % 0,0 l/m 14,7 km/h (3 Bft) SO 132 6,0 C 4,7 C 22,5 km/h (4 Bft)
06.05.2021 21:52 9,1 C 78 % 0,0 l/m 9,3 km/h (2 Bft) S-SW 212 5,5 C 7,0 C 14,5 km/h (3 Bft)
06.05.2021 20:52 9,5 C 72 % 0,0 l/m 8,9 km/h (2 Bft) SO 139 4,7 C 7,7 C 14,5 km/h (3 Bft)
06.05.2021 19:52 10,6 C 63 % 0,0 l/m 7,6 km/h (2 Bft) O 88 3,9 C 9,8 C 11,3 km/h (2 Bft)
06.05.2021 18:51 12,2 C 57 % 0,0 l/m 14,0 km/h (3 Bft) SO 137 3,9 C 8,2 C 17,7 km/h (3 Bft)
06.05.2021 17:51 13,5 C 49 % 0,0 l/m 24,8 km/h (4 Bft) SW 217 3,0 C 6,6 C 33,8 km/h (5 Bft)
06.05.2021 16:50 13,7 C 55 % 0,0 l/m 14,8 km/h (3 Bft) SO 138 4,8 C 9,7 C 27,4 km/h (4 Bft)
06.05.2021 15:50 12,7 C 55 % 0,0 l/m 26,0 km/h (4 Bft) S 187 3,9 C 5,3 C 41,8 km/h (6 Bft)
06.05.2021 14:50 12,1 C 56 % 0,0 l/m 27,9 km/h (4 Bft) SW 218 3,6 C 4,0 C 45,1 km/h (6 Bft)
06.05.2021 13:50 12,6 C 59 % 0,0 l/m 21,5 km/h (4 Bft) S-SW 210 4,8 C 6,2 C 30,6 km/h (5 Bft)
06.05.2021 12:50 12,8 C 55 % 0,0 l/m 26,3 km/h (4 Bft) W-SW 239 4,0 C 5,3 C 33,8 km/h (5 Bft)
06.05.2021 11:50 12,2 C 63 % 0,0 l/m 18,5 km/h (3 Bft) S-SW 211 5,4 C 6,6 C 27,4 km/h (4 Bft)
06.05.2021 10:50 10,7 C 66 % 0,0 l/m 11,9 km/h (2 Bft) SW 226 4,6 C 7,4 C 19,3 km/h (3 Bft)
06.05.2021 09:50 9,4 C 73 % 0,0 l/m 15,5 km/h (3 Bft) SW 215 4,8 C 4,2 C 20,9 km/h (4 Bft)
06.05.2021 09:00 9,2 C 77 % 0,0 l/m 5,7 km/h (1 Bft) SW 236 5,4 C 9,2 C 9,7 km/h (2 Bft)
_ Min-Zeit 03:50 17:54 - 02:03 - - 17:54 22:58 02:03
Minimum _ 8,2 C 48 % - 0,0 km/h (0 Bft) - - 2,6 C 1,1 C 0,0 km/h (0 Bft)
_ Max-Zeit 16:53 08:00 09:00 15:55 - - 08:50 16:37 15:55
Maximum _ 14,0 C 90 % 0,0 l/m 46,7 km/h
SW (6 Bft)
- - 7,9 C 11,8 C 59,5 km/h
SW (7 Bft)
Durchschnitt _ 10,3 C 72 % #0,0 l/m 12,2 km/h (2 Bft) SW - 5,2 C 7,3 C 17,7 km/h (3 Bft)